Time;durP1;ratioP1;P1;durP2;ratioP2;P2;SDS_P1;SDS_P2;PMS_P1;PMS_P2;Temp;Humidity;BMP_temperature;BMP_pressure;BME280_temperature;BME280_humidity;BME280_pressure;Samples;Min_cycle;Max_cycle;Signal;HPM_P1;HPM_P2
2023/12/12 00:01:59;;;;;;;6.57;3.33;;;10.00;99.90;;;;;;4938152;29;20236;-75
2023/12/12 00:04:26;;;;;;;4.40;4.00;;;10.00;99.90;;;;;;4937916;29;20225;-75
2023/12/12 00:06:53;;;;;;;3.75;3.45;;;10.00;99.90;;;;;;4939595;29;20539;-82
2023/12/12 00:09:20;;;;;;;5.07;4.45;;;10.00;99.90;;;;;;4939362;29;20252;-76
2023/12/12 00:11:48;;;;;;;4.18;3.80;;;10.00;99.90;;;;;;4924060;29;20225;-76
2023/12/12 00:14:15;;;;;;;11.45;8.30;;;10.00;99.90;;;;;;4918963;29;20685;-76
2023/12/12 00:16:43;;;;;;;5.25;4.82;;;10.00;99.90;;;;;;4919783;29;20279;-75
2023/12/12 00:19:13;;;;;;;3.03;2.83;;;9.90;99.90;;;;;;4927444;29;20229;-82
2023/12/12 00:21:40;;;;;;;3.30;3.05;;;9.90;99.90;;;;;;4930899;29;20229;-83
2023/12/12 00:24:07;;;;;;;3.75;3.45;;;9.90;99.90;;;;;;4931220;29;20244;-83
2023/12/12 00:26:34;;;;;;;4.05;3.45;;;9.90;99.90;;;;;;4954048;28;20239;-82
2023/12/12 00:29:01;;;;;;;3.83;3.45;;;9.90;99.90;;;;;;4957664;28;20232;-75
2023/12/12 00:31:28;;;;;;;5.95;4.50;;;9.90;99.90;;;;;;4956500;28;20236;-75
2023/12/12 00:33:56;;;;;;;3.00;2.80;;;9.90;99.90;;;;;;4957525;28;20228;-82
2023/12/12 00:36:23;;;;;;;2.80;2.60;;;9.90;99.90;;;;;;4956249;28;20243;-82
2023/12/12 00:38:50;;;;;;;3.30;2.97;;;9.90;99.90;;;;;;4955089;28;20278;-75
2023/12/12 00:41:18;;;;;;;3.42;3.13;;;9.90;99.90;;;;;;4955024;28;20235;-76
2023/12/12 00:43:45;;;;;;;3.20;2.90;;;9.90;99.90;;;;;;4956841;28;20235;-75
2023/12/12 00:46:12;;;;;;;2.63;2.42;;;9.90;99.90;;;;;;4947540;29;20315;-75
2023/12/12 00:48:39;;;;;;;3.35;3.03;;;9.90;99.90;;;;;;4948048;28;20545;-75
2023/12/12 00:51:09;;;;;;;2.70;2.50;;;9.90;99.90;;;;;;4956869;28;20675;-75
2023/12/12 00:53:36;;;;;;;2.88;2.67;;;9.90;99.90;;;;;;4954943;28;20311;-75
2023/12/12 00:56:05;;;;;;;3.75;2.80;;;9.90;99.90;;;;;;4957352;29;20238;-83
2023/12/12 00:58:32;;;;;;;3.65;3.35;;;9.90;99.90;;;;;;4955813;28;20232;-83
2023/12/12 01:01:00;;;;;;;5.68;4.30;;;9.90;99.90;;;;;;4957329;28;20710;-82
2023/12/12 01:03:28;;;;;;;41.60;32.95;;;9.90;99.90;;;;;;4936888;29;20233;-83
2023/12/12 01:05:55;;;;;;;29.02;25.52;;;9.80;99.90;;;;;;4947093;28;20224;-83
2023/12/12 01:08:23;;;;;;;29.10;22.65;;;9.90;99.90;;;;;;4956335;28;20239;-82
2023/12/12 01:10:50;;;;;;;19.95;14.90;;;9.90;99.90;;;;;;4956734;28;20223;-83
2023/12/12 01:13:17;;;;;;;9.30;8.32;;;9.90;99.90;;;;;;4955762;29;20236;-75
2023/12/12 01:15:44;;;;;;;5.45;4.68;;;9.90;99.90;;;;;;4955025;28;20220;-83
2023/12/12 01:18:11;;;;;;;4.03;3.42;;;9.90;99.90;;;;;;4954345;28;20579;-76
2023/12/12 01:20:38;;;;;;;3.92;3.63;;;9.90;99.90;;;;;;4955551;29;20224;-76
2023/12/12 01:23:05;;;;;;;3.00;2.80;;;9.90;99.90;;;;;;4956450;28;20235;-75
2023/12/12 01:25:33;;;;;;;4.38;3.45;;;9.90;99.90;;;;;;4955620;28;20561;-75
2023/12/12 01:28:00;;;;;;;3.42;3.13;;;9.90;99.90;;;;;;4956616;29;20706;-75
2023/12/12 01:30:27;;;;;;;3.38;3.08;;;9.90;99.90;;;;;;4955507;29;20230;-76
2023/12/12 01:32:54;;;;;;;5.88;3.55;;;9.90;99.90;;;;;;4945761;29;20567;-76
2023/12/12 01:35:21;;;;;;;3.85;3.50;;;9.90;99.90;;;;;;4926514;29;20267;-83
2023/12/12 01:37:49;;;;;;;3.55;3.25;;;9.90;99.90;;;;;;4934507;29;20221;-80
2023/12/12 01:40:16;;;;;;;4.25;3.53;;;9.90;99.90;;;;;;4936377;29;20256;-82
2023/12/12 01:42:44;;;;;;;3.50;3.20;;;9.90;99.90;;;;;;4935886;29;20320;-81
2023/12/12 01:45:11;;;;;;;3.70;3.40;;;9.90;99.90;;;;;;4936885;29;20308;-81
2023/12/12 01:47:38;;;;;;;3.95;3.55;;;9.90;99.90;;;;;;4935533;29;20237;-76
2023/12/12 01:50:07;;;;;;;4.07;3.78;;;9.90;99.90;;;;;;4935368;29;20232;-75
2023/12/12 01:52:36;;;;;;;4.40;4.00;;;9.90;99.90;;;;;;4936261;29;20299;-80
2023/12/12 01:55:03;;;;;;;3.97;3.63;;;9.90;99.90;;;;;;4936594;29;20232;-75
2023/12/12 01:57:30;;;;;;;4.30;3.90;;;9.90;99.90;;;;;;4936422;29;20225;-76
2023/12/12 01:59:58;;;;;;;3.40;3.20;;;9.90;99.90;;;;;;4936879;29;20232;-76
2023/12/12 02:02:26;;;;;;;3.97;3.50;;;9.90;99.90;;;;;;4936506;29;20236;-75
2023/12/12 02:04:53;;;;;;;4.13;3.72;;;9.90;99.90;;;;;;4936568;29;20221;-76
2023/12/12 02:07:23;;;;;;;3.92;3.58;;;9.90;99.90;;;;;;4936799;29;20225;-76
2023/12/12 02:09:52;;;;;;;4.35;3.95;;;10.00;99.90;;;;;;4935505;29;20232;-76
2023/12/12 02:12:19;;;;;;;4.18;3.50;;;10.00;99.90;;;;;;4936538;29;20612;-76
2023/12/12 02:14:46;;;;;;;4.18;3.88;;;10.00;99.90;;;;;;4935563;29;20233;-76
2023/12/12 02:17:14;;;;;;;3.95;3.55;;;10.00;99.90;;;;;;4935637;29;20237;-75
2023/12/12 02:19:41;;;;;;;4.50;4.10;;;10.00;99.90;;;;;;4935931;29;20667;-76
2023/12/12 02:22:12;;;;;;;3.83;3.53;;;10.00;99.90;;;;;;4936707;29;20601;-76
2023/12/12 02:24:39;;;;;;;4.22;3.80;;;10.00;99.90;;;;;;4935606;29;20687;-75
2023/12/12 02:27:07;;;;;;;4.30;3.78;;;10.00;99.90;;;;;;4936456;29;20233;-75
2023/12/12 02:29:34;;;;;;;3.72;3.42;;;10.00;99.90;;;;;;4936112;29;20578;-80
2023/12/12 02:32:01;;;;;;;3.20;2.90;;;10.00;99.90;;;;;;4936413;29;20236;-80
2023/12/12 02:34:28;;;;;;;3.10;2.80;;;10.00;99.90;;;;;;4936383;29;20236;-81
2023/12/12 02:36:55;;;;;;;3.08;2.80;;;10.00;99.90;;;;;;4935901;29;20220;-75
2023/12/12 02:39:24;;;;;;;3.20;2.90;;;10.00;99.90;;;;;;4936121;29;20228;-75
2023/12/12 02:41:50;;;;;;;3.15;2.85;;;10.00;99.90;;;;;;4935646;29;20630;-76
2023/12/12 02:44:17;;;;;;;3.60;2.90;;;10.00;99.90;;;;;;4936316;29;20687;-76
2023/12/12 02:46:44;;;;;;;3.20;2.90;;;10.00;99.90;;;;;;4935699;29;20311;-76
2023/12/12 02:49:14;;;;;;;3.72;2.95;;;10.00;99.90;;;;;;4936339;29;20616;-76
2023/12/12 02:51:41;;;;;;;3.55;3.25;;;10.00;99.90;;;;;;4935473;29;20228;-76
2023/12/12 02:54:08;;;;;;;4.57;3.08;;;10.00;99.90;;;;;;4936055;29;20241;-75
2023/12/12 02:56:36;;;;;;;3.58;3.00;;;10.00;99.90;;;;;;4935602;29;20233;-76
2023/12/12 02:59:03;;;;;;;4.10;3.80;;;10.00;99.90;;;;;;4936294;29;20232;-76
2023/12/12 03:01:30;;;;;;;5.40;4.97;;;10.00;99.90;;;;;;4936059;29;20542;-75
2023/12/12 03:03:57;;;;;;;3.92;3.63;;;10.00;99.90;;;;;;4935701;29;20232;-80
2023/12/12 03:06:24;;;;;;;4.20;3.80;;;10.00;99.90;;;;;;4935996;29;20287;-80
2023/12/12 03:08:51;;;;;;;4.70;4.22;;;10.00;99.90;;;;;;4935224;29;20240;-75
2023/12/12 03:11:18;;;;;;;4.40;4.00;;;10.00;99.90;;;;;;4935971;29;20225;-75
2023/12/12 03:13:46;;;;;;;4.65;4.10;;;10.00;99.90;;;;;;4935254;29;20240;-76
2023/12/12 03:16:13;;;;;;;5.15;4.43;;;10.00;99.90;;;;;;4936191;29;20244;-76
2023/12/12 03:18:40;;;;;;;4.70;4.30;;;10.00;99.90;;;;;;4935395;29;20224;-76
2023/12/12 03:21:07;;;;;;;5.45;4.95;;;10.00;99.90;;;;;;4935748;29;20232;-76
2023/12/12 03:23:34;;;;;;;4.40;4.00;;;10.00;99.90;;;;;;4935649;29;20248;-76
2023/12/12 03:26:07;;;;;;;3.85;3.55;;;10.00;99.90;;;;;;4937895;29;20225;-76
2023/12/12 03:28:34;;;;;;;5.07;4.57;;;10.00;99.90;;;;;;4939346;29;20315;-76
2023/12/12 03:31:04;;;;;;;5.30;4.75;;;10.00;99.90;;;;;;4939169;29;20220;-76
2023/12/12 03:33:31;;;;;;;5.85;5.35;;;10.00;99.90;;;;;;4939230;29;20732;-76
2023/12/12 03:35:58;;;;;;;5.38;4.88;;;10.00;99.90;;;;;;4938784;29;20272;-76
2023/12/12 03:38:25;;;;;;;6.18;5.45;;;10.00;99.90;;;;;;4939303;29;20726;-76
2023/12/12 03:40:52;;;;;;;6.05;5.55;;;9.90;99.90;;;;;;4938118;29;20220;-76
2023/12/12 03:43:19;;;;;;;6.53;5.90;;;9.90;99.90;;;;;;4939067;29;20239;-76
2023/12/12 03:45:46;;;;;;;6.00;5.50;;;9.90;99.90;;;;;;4938645;29;20583;-76
2023/12/12 03:48:14;;;;;;;6.72;6.13;;;10.00;99.90;;;;;;4938989;29;20240;-76
2023/12/12 03:50:41;;;;;;;6.55;5.85;;;10.00;99.90;;;;;;4938541;29;20235;-76
2023/12/12 03:53:08;;;;;;;7.97;7.18;;;10.00;99.90;;;;;;4938631;29;20705;-75
2023/12/12 03:55:35;;;;;;;7.53;6.82;;;9.90;99.90;;;;;;4938921;29;20686;-75
2023/12/12 03:58:03;;;;;;;7.82;7.00;;;10.00;99.90;;;;;;4938572;29;20236;-76
2023/12/12 04:00:29;;;;;;;9.02;8.13;;;9.90;99.90;;;;;;4939161;29;20224;-75
2023/12/12 04:02:56;;;;;;;9.45;7.55;;;9.90;99.90;;;;;;4938594;29;20249;-76
2023/12/12 04:05:25;;;;;;;8.77;7.90;;;9.90;99.90;;;;;;4938912;29;20225;-76
2023/12/12 04:07:51;;;;;;;9.75;7.05;;;9.90;99.90;;;;;;4938477;29;20229;-76
2023/12/12 04:10:19;;;;;;;8.10;7.07;;;9.90;99.90;;;;;;4938608;29;20229;-75
2023/12/12 04:12:46;;;;;;;7.80;7.10;;;9.90;99.90;;;;;;4938086;29;20630;-76
2023/12/12 04:15:13;;;;;;;8.30;7.15;;;10.00;99.90;;;;;;4939122;29;20228;-76
2023/12/12 04:17:40;;;;;;;8.88;8.00;;;10.00;99.90;;;;;;4938388;29;20232;-75
2023/12/12 04:20:08;;;;;;;8.15;7.35;;;10.00;99.90;;;;;;4938610;29;20244;-76
2023/12/12 04:22:36;;;;;;;6.50;5.90;;;10.00;99.90;;;;;;4940073;29;20232;-76
2023/12/12 04:25:04;;;;;;;7.50;6.70;;;10.00;99.90;;;;;;4939952;29;20229;-76
2023/12/12 04:27:32;;;;;;;6.60;6.00;;;10.00;99.90;;;;;;4939839;29;20575;-75
2023/12/12 04:29:59;;;;;;;8.80;7.10;;;10.00;99.90;;;;;;4938309;29;20233;-75
2023/12/12 04:32:26;;;;;;;7.57;6.10;;;10.00;99.90;;;;;;4938294;29;20691;-75
2023/12/12 04:34:53;;;;;;;6.70;6.07;;;10.00;99.90;;;;;;4937925;29;20634;-76
2023/12/12 04:37:20;;;;;;;9.82;6.53;;;10.00;99.90;;;;;;4937774;29;20232;-75
2023/12/12 04:39:48;;;;;;;6.95;5.63;;;10.00;99.90;;;;;;4937841;29;20225;-76
2023/12/12 04:42:15;;;;;;;6.72;6.13;;;10.00;99.90;;;;;;4938006;29;20244;-75
2023/12/12 04:44:42;;;;;;;8.05;6.60;;;10.00;99.90;;;;;;4938391;29;20233;-76
2023/12/12 04:47:09;;;;;;;6.88;6.15;;;10.00;99.90;;;;;;4937588;29;20316;-75
2023/12/12 04:49:36;;;;;;;6.32;5.45;;;10.00;99.90;;;;;;4938206;29;20239;-75
2023/12/12 04:52:04;;;;;;;8.98;5.70;;;10.00;99.90;;;;;;4937969;29;20681;-76
2023/12/12 04:54:31;;;;;;;5.20;4.70;;;10.00;99.90;;;;;;4937797;29;20312;-76
2023/12/12 04:56:59;;;;;;;4.93;4.32;;;9.90;99.90;;;;;;4937592;29;20569;-75
2023/12/12 04:59:26;;;;;;;4.70;4.30;;;9.90;99.90;;;;;;4938045;29;20272;-76
2023/12/12 05:01:53;;;;;;;5.95;5.43;;;9.90;99.90;;;;;;4937223;29;20236;-76
2023/12/12 05:04:20;;;;;;;5.28;3.95;;;10.00;99.90;;;;;;4937926;29;20224;-75
2023/12/12 05:06:47;;;;;;;4.07;3.78;;;9.90;99.90;;;;;;4937433;29;20225;-76
2023/12/12 05:09:14;;;;;;;3.90;3.60;;;10.00;99.90;;;;;;4937668;29;20241;-80
2023/12/12 05:11:41;;;;;;;3.97;3.67;;;10.00;99.90;;;;;;4937707;29;20687;-81
2023/12/12 05:14:10;;;;;;;3.83;3.15;;;9.90;99.90;;;;;;4937260;29;20224;-80
2023/12/12 05:16:38;;;;;;;3.05;2.65;;;9.90;99.90;;;;;;4937512;29;20614;-80
2023/12/12 05:19:05;;;;;;;3.58;3.30;;;9.90;99.90;;;;;;4937208;29;20233;-80
2023/12/12 05:21:32;;;;;;;3.72;3.42;;;9.90;99.90;;;;;;4937501;29;20567;-76
2023/12/12 05:23:58;;;;;;;5.78;3.63;;;9.90;99.90;;;;;;4936684;29;20232;-75
2023/12/12 05:26:25;;;;;;;4.32;3.83;;;9.90;99.90;;;;;;4938324;29;20224;-76
2023/12/12 05:28:53;;;;;;;4.65;3.38;;;9.90;99.90;;;;;;4937608;29;20706;-80
2023/12/12 05:31:24;;;;;;;2.88;2.67;;;9.90;99.90;;;;;;4939719;29;20229;-81
2023/12/12 05:33:51;;;;;;;4.40;2.70;;;9.90;99.90;;;;;;4937613;29;20279;-80
2023/12/12 05:36:18;;;;;;;3.80;3.00;;;9.90;99.90;;;;;;4936954;29;20225;-76
2023/12/12 05:38:45;;;;;;;4.00;2.95;;;9.90;99.90;;;;;;4937682;29;20232;-80
2023/12/12 05:41:12;;;;;;;3.20;2.85;;;9.90;99.90;;;;;;4937310;29;20228;-81
2023/12/12 05:43:38;;;;;;;3.35;3.05;;;9.90;99.90;;;;;;4937621;29;20578;-81
2023/12/12 05:46:06;;;;;;;4.72;3.00;;;9.90;99.90;;;;;;4936991;29;20296;-81
2023/12/12 05:48:34;;;;;;;4.70;3.08;;;9.90;99.90;;;;;;4936853;29;20228;-80
2023/12/12 05:51:01;;;;;;;5.13;4.60;;;9.90;99.90;;;;;;4937315;29;20228;-81
2023/12/12 05:53:28;;;;;;;7.45;4.90;;;9.80;99.90;;;;;;4937514;29;20224;-80
2023/12/12 05:55:56;;;;;;;9.15;7.63;;;9.80;99.90;;;;;;4938190;29;20220;-80
2023/12/12 05:58:23;;;;;;;7.40;6.47;;;9.80;99.90;;;;;;4937887;29;20685;-80
2023/12/12 06:00:51;;;;;;;7.15;6.45;;;9.80;99.90;;;;;;4937489;29;20316;-80
2023/12/12 06:03:19;;;;;;;6.97;5.40;;;9.80;99.90;;;;;;4937281;29;20308;-80
2023/12/12 06:05:48;;;;;;;7.43;6.78;;;9.80;99.90;;;;;;4937899;29;20221;-80
2023/12/12 06:08:16;;;;;;;6.22;5.60;;;9.70;99.90;;;;;;4936590;29;20283;-79
2023/12/12 06:10:43;;;;;;;9.30;8.15;;;9.70;99.90;;;;;;4937159;29;20240;-80
2023/12/12 06:13:10;;;;;;;8.18;6.88;;;9.70;99.90;;;;;;4937015;29;20229;-81
2023/12/12 06:15:37;;;;;;;8.60;6.38;;;9.70;99.90;;;;;;4938017;29;20245;-80
2023/12/12 06:18:04;;;;;;;6.47;5.53;;;9.70;99.90;;;;;;4936989;29;20264;-76
2023/12/12 06:20:32;;;;;;;5.40;4.75;;;9.80;99.90;;;;;;4938977;29;20566;-75
2023/12/12 06:23:01;;;;;;;9.60;4.93;;;9.80;99.90;;;;;;4942043;29;20237;-76
2023/12/12 06:25:28;;;;;;;5.65;4.70;;;9.80;99.90;;;;;;4944154;29;20221;-80
2023/12/12 06:27:56;;;;;;;9.80;5.40;;;9.80;99.90;;;;;;4945300;29;20628;-80
2023/12/12 06:30:23;;;;;;;6.45;4.35;;;9.80;99.90;;;;;;4946246;29;20244;-76
2023/12/12 06:32:49;;;;;;;5.50;5.05;;;9.80;99.90;;;;;;4943027;29;20221;-80
2023/12/12 06:35:17;;;;;;;9.93;7.00;;;9.80;99.90;;;;;;4940592;29;20259;-80
2023/12/12 06:37:44;;;;;;;7.90;5.60;;;9.80;99.90;;;;;;4938738;29;20228;-76
2023/12/12 06:40:13;;;;;;;11.00;7.20;;;9.90;99.90;;;;;;4937133;29;20229;-76
2023/12/12 06:42:41;;;;;;;7.22;6.32;;;9.90;99.90;;;;;;4936803;29;20228;-76
2023/12/12 06:45:10;;;;;;;5.75;4.88;;;9.90;99.90;;;;;;4937567;29;20239;-76
2023/12/12 06:47:37;;;;;;;6.93;5.88;;;9.90;99.90;;;;;;4937820;29;20220;-81
2023/12/12 06:50:04;;;;;;;7.72;5.50;;;9.90;99.90;;;;;;4937457;29;20232;-76
2023/12/12 06:52:31;;;;;;;7.15;6.20;;;9.90;99.90;;;;;;4937168;29;20235;-76
2023/12/12 06:54:58;;;;;;;8.13;5.10;;;9.90;99.90;;;;;;4936231;29;20252;-76
2023/12/12 06:57:27;;;;;;;7.97;5.60;;;9.90;99.90;;;;;;4935350;29;20670;-76
2023/12/12 06:59:54;;;;;;;8.65;7.07;;;9.90;99.90;;;;;;4936795;29;20239;-76
2023/12/12 07:02:21;;;;;;;7.50;6.53;;;9.90;99.90;;;;;;4939908;29;20247;-76
2023/12/12 07:04:48;;;;;;;6.50;5.90;;;9.90;99.90;;;;;;4940772;29;20239;-76
2023/12/12 07:07:15;;;;;;;6.55;5.90;;;9.90;99.90;;;;;;4939998;29;20259;-75
2023/12/12 07:09:42;;;;;;;7.45;6.50;;;9.80;99.90;;;;;;4939766;29;20303;-76
2023/12/12 07:12:09;;;;;;;7.85;6.60;;;9.80;99.90;;;;;;4940117;29;20252;-76
2023/12/12 07:14:38;;;;;;;6.10;5.50;;;9.80;99.90;;;;;;4940261;29;20674;-80
2023/12/12 07:17:05;;;;;;;7.55;5.10;;;9.80;99.90;;;;;;4939846;29;20225;-80
2023/12/12 07:19:32;;;;;;;6.82;5.50;;;9.80;99.90;;;;;;4940331;29;20224;-81
2023/12/12 07:21:59;;;;;;;6.47;5.82;;;9.70;99.90;;;;;;4940465;29;20236;-81
2023/12/12 07:24:26;;;;;;;11.05;6.68;;;9.70;99.90;;;;;;4939376;29;20229;-81
2023/12/12 07:26:52;;;;;;;11.98;7.38;;;9.70;99.90;;;;;;4940714;29;20224;-81
2023/12/12 07:29:19;;;;;;;9.38;6.00;;;9.70;99.90;;;;;;4940339;29;20228;-81
2023/12/12 07:31:48;;;;;;;10.50;6.93;;;9.70;99.90;;;;;;4946875;29;20224;-80
2023/12/12 07:34:15;;;;;;;8.80;8.00;;;9.70;99.90;;;;;;4941684;29;20225;-81
2023/12/12 07:36:42;;;;;;;9.20;6.00;;;9.70;99.90;;;;;;4939425;29;20234;-81
2023/12/12 07:39:09;;;;;;;8.50;7.63;;;9.70;99.90;;;;;;4939599;29;20320;-80
2023/12/12 07:41:36;;;;;;;8.30;6.20;;;9.70;99.90;;;;;;4939722;29;20567;-80
2023/12/12 07:44:04;;;;;;;13.23;9.15;;;9.70;99.90;;;;;;4939311;29;20243;-81
2023/12/12 07:46:36;;;;;;;9.93;8.30;;;9.70;99.90;;;;;;4939014;29;20252;-81
2023/12/12 07:49:05;;;;;;;8.10;7.07;;;9.70;99.90;;;;;;4940478;29;20284;-80
2023/12/12 07:51:32;;;;;;;6.82;6.10;;;9.70;99.90;;;;;;4939593;29;20651;-80
2023/12/12 07:53:59;;;;;;;6.88;6.22;;;9.70;99.90;;;;;;4939881;29;20243;-80
2023/12/12 07:56:26;;;;;;;6.88;6.07;;;9.70;99.90;;;;;;4939037;29;20509;-80
2023/12/12 07:58:53;;;;;;;9.48;6.45;;;9.70;99.90;;;;;;4939553;29;20691;-81
2023/12/12 08:01:20;;;;;;;9.00;6.65;;;9.70;99.90;;;;;;4939297;29;20232;-80
2023/12/12 08:03:47;;;;;;;8.93;7.40;;;9.70;99.90;;;;;;4939500;29;20233;-81
2023/12/12 08:06:15;;;;;;;8.32;6.65;;;9.80;99.90;;;;;;4939031;29;20743;-80
2023/12/12 08:08:42;;;;;;;8.35;6.18;;;9.70;99.90;;;;;;4929802;29;20308;-80
2023/12/12 08:11:13;;;;;;;8.55;7.05;;;9.70;99.90;;;;;;4937754;29;20233;-76
2023/12/12 08:13:40;;;;;;;8.43;7.03;;;9.70;99.90;;;;;;4938395;29;20252;-80
2023/12/12 08:16:08;;;;;;;8.00;7.30;;;9.80;99.90;;;;;;4939448;29;20233;-81
2023/12/12 08:18:37;;;;;;;9.60;8.25;;;9.80;99.90;;;;;;4938756;29;20249;-80
2023/12/12 08:21:06;;;;;;;10.68;9.00;;;9.70;99.90;;;;;;4939958;29;20225;-75
2023/12/12 08:23:36;;;;;;;8.63;7.60;;;9.80;99.90;;;;;;4938999;29;20690;-75
2023/12/12 08:26:05;;;;;;;12.00;8.40;;;9.80;99.90;;;;;;4939502;29;20556;-76
2023/12/12 08:28:32;;;;;;;8.52;7.30;;;9.80;99.90;;;;;;4938069;29;20248;-76
2023/12/12 08:30:59;;;;;;;9.55;8.57;;;9.80;99.90;;;;;;4941253;29;20240;-80
2023/12/12 08:33:29;;;;;;;7.25;6.55;;;9.80;99.90;;;;;;4938093;29;20240;-76
2023/12/12 08:35:57;;;;;;;9.07;7.05;;;9.80;99.90;;;;;;4938738;29;20243;-76
2023/12/12 08:38:24;;;;;;;9.10;8.00;;;9.80;99.90;;;;;;4938023;29;20543;-76
2023/12/12 08:40:54;;;;;;;10.38;7.90;;;9.80;99.90;;;;;;4940981;29;20606;-80
2023/12/12 08:43:21;;;;;;;10.00;7.18;;;9.80;99.90;;;;;;4939775;29;20288;-79
2023/12/12 08:48:32;;;;;;;9.25;6.97;;;9.80;99.90;;;;;;4930066;29;20239;-80
2023/12/12 08:50:59;;;;;;;6.70;6.00;;;9.90;99.90;;;;;;4938247;29;20231;-78
2023/12/12 08:53:26;;;;;;;6.80;6.10;;;9.80;99.90;;;;;;4938265;29;20236;-76
2023/12/12 08:55:56;;;;;;;12.48;5.95;;;9.80;99.90;;;;;;4938502;29;20680;-76
2023/12/12 08:58:25;;;;;;;12.80;6.22;;;9.90;99.90;;;;;;4938245;29;20228;-77
2023/12/12 09:00:53;;;;;;;7.35;6.22;;;9.90;99.90;;;;;;4937952;29;20320;-76
2023/12/12 09:03:21;;;;;;;7.43;6.72;;;9.90;99.90;;;;;;4937550;29;20240;-76
2023/12/12 09:05:49;;;;;;;10.43;6.30;;;9.90;99.90;;;;;;4938160;29;20264;-81
2023/12/12 09:08:16;;;;;;;11.13;7.00;;;9.90;99.90;;;;;;4937974;29;20237;-81
2023/12/12 09:10:43;;;;;;;8.18;5.80;;;9.90;99.90;;;;;;4937769;29;20311;-81
2023/12/12 09:13:12;;;;;;;6.85;5.50;;;9.80;99.90;;;;;;4938093;29;20232;-80
2023/12/12 09:15:39;;;;;;;9.13;5.35;;;9.90;99.90;;;;;;4937611;29;20622;-76
2023/12/12 09:18:06;;;;;;;6.60;5.57;;;9.80;99.90;;;;;;4938094;29;20699;-76
2023/12/12 09:20:33;;;;;;;7.47;5.10;;;9.90;99.90;;;;;;4936448;29;20258;-76
2023/12/12 09:23:00;;;;;;;5.10;4.55;;;9.90;99.90;;;;;;4937219;29;20244;-76
2023/12/12 09:25:27;;;;;;;7.25;4.97;;;9.90;99.90;;;;;;4937410;29;20233;-76
2023/12/12 09:27:59;;;;;;;8.90;4.70;;;9.90;99.90;;;;;;4937494;29;20288;-76
2023/12/12 09:30:27;;;;;;;7.93;5.07;;;9.90;99.90;;;;;;4937805;29;20229;-80
2023/12/12 09:32:55;;;;;;;6.70;4.65;;;9.90;99.90;;;;;;4937492;29;20221;-80
2023/12/12 09:35:22;;;;;;;7.60;5.30;;;9.90;99.90;;;;;;4937837;29;20229;-81
2023/12/12 09:37:49;;;;;;;6.90;5.78;;;9.90;99.90;;;;;;4936958;29;20232;-81
2023/12/12 09:40:16;;;;;;;11.48;5.10;;;9.80;99.90;;;;;;4937390;29;20239;-81
2023/12/12 09:42:45;;;;;;;10.02;5.30;;;9.80;99.90;;;;;;4937005;29;20236;-76
2023/12/12 09:45:14;;;;;;;5.80;4.85;;;9.80;99.90;;;;;;4937410;29;20229;-81
2023/12/12 09:47:44;;;;;;;5.75;4.15;;;9.80;99.90;;;;;;4937019;29;20287;-80
2023/12/12 09:50:12;;;;;;;9.25;6.20;;;9.80;99.90;;;;;;4937458;29;20232;-80
2023/12/12 09:52:42;;;;;;;6.60;5.43;;;9.80;99.90;;;;;;4936858;29;20582;-76
2023/12/12 09:55:10;;;;;;;9.73;7.70;;;9.80;99.90;;;;;;4937520;29;20247;-76
2023/12/12 09:57:37;;;;;;;9.90;7.95;;;9.80;99.90;;;;;;4936182;29;20240;-76
2023/12/12 10:00:08;;;;;;;8.43;6.32;;;9.80;99.90;;;;;;4937185;29;20229;-80
2023/12/12 10:02:36;;;;;;;11.20;6.50;;;9.80;99.90;;;;;;4936495;29;20237;-80
2023/12/12 10:05:09;;;;;;;7.60;5.55;;;9.80;99.90;;;;;;4937248;29;20240;-81
2023/12/12 10:07:37;;;;;;;7.32;5.63;;;9.80;99.90;;;;;;4936831;29;20247;-75
2023/12/12 10:10:07;;;;;;;10.13;6.03;;;9.80;99.90;;;;;;4937039;29;20224;-75
2023/12/12 10:12:34;;;;;;;6.30;5.35;;;9.80;99.90;;;;;;4936343;29;20626;-80
2023/12/12 10:15:01;;;;;;;5.88;5.25;;;9.80;99.90;;;;;;4936874;29;20225;-75
2023/12/12 10:17:28;;;;;;;6.68;4.28;;;9.80;99.90;;;;;;4936266;29;20244;-75
2023/12/12 10:20:00;;;;;;;9.20;6.97;;;9.80;99.90;;;;;;4936150;29;20236;-75
2023/12/12 10:22:31;;;;;;;5.28;4.88;;;9.80;99.90;;;;;;4936527;29;20224;-75
2023/12/12 10:25:09;;;;;;;5.50;4.80;;;9.80;99.90;;;;;;4935666;29;20231;-77
2023/12/12 10:27:37;;;;;;;5.78;5.10;;;9.90;99.90;;;;;;4935716;29;20236;-78
2023/12/12 10:30:05;;;;;;;9.00;6.10;;;9.90;99.90;;;;;;4936850;29;20236;-80
2023/12/12 10:32:32;;;;;;;7.53;6.40;;;9.90;99.90;;;;;;4936878;29;20283;-79
2023/12/12 10:34:59;;;;;;;7.05;5.07;;;9.90;99.90;;;;;;4935789;29;20227;-79
2023/12/12 10:37:27;;;;;;;7.35;6.65;;;9.90;99.90;;;;;;4936601;29;20375;-80
2023/12/12 10:39:56;;;;;;;7.80;6.20;;;9.90;99.90;;;;;;4936208;29;20228;-75
2023/12/12 10:42:25;;;;;;;6.80;5.53;;;9.90;99.90;;;;;;4936866;29;20239;-75
2023/12/12 10:45:00;;;;;;;6.72;6.03;;;9.90;99.90;;;;;;4936199;29;20225;-76
2023/12/12 10:47:28;;;;;;;6.32;4.38;;;9.90;99.90;;;;;;4936324;29;20346;-76
2023/12/12 10:49:58;;;;;;;7.25;5.25;;;9.90;99.90;;;;;;4935965;29;20340;-81
2023/12/12 10:52:25;;;;;;;4.90;4.40;;;9.90;99.90;;;;;;4935941;29;20292;-81
2023/12/12 10:54:56;;;;;;;5.72;5.03;;;9.90;99.90;;;;;;4935361;29;20228;-76
2023/12/12 10:57:25;;;;;;;4.80;4.40;;;9.90;99.90;;;;;;4935800;29;20235;-76
2023/12/12 10:59:54;;;;;;;5.05;4.07;;;9.90;99.90;;;;;;4935831;29;20243;-76
2023/12/12 11:02:22;;;;;;;4.65;4.32;;;9.90;99.90;;;;;;4936150;29;20288;-76
2023/12/12 11:04:49;;;;;;;6.88;5.45;;;9.90;99.90;;;;;;4941159;28;20286;-76
2023/12/12 11:07:19;;;;;;;10.15;6.30;;;9.90;99.90;;;;;;4947380;28;20239;-80
2023/12/12 11:09:46;;;;;;;6.93;6.32;;;10.00;99.90;;;;;;4950827;28;20223;-77
2023/12/12 11:12:14;;;;;;;9.52;6.45;;;10.00;99.90;;;;;;4950640;28;20231;-77
2023/12/12 11:14:43;;;;;;;12.02;6.47;;;9.90;99.90;;;;;;4954041;28;20745;-80
2023/12/12 11:17:11;;;;;;;7.03;6.32;;;9.90;99.90;;;;;;4954738;28;20224;-79
2023/12/12 11:19:38;;;;;;;9.32;5.95;;;9.90;99.90;;;;;;4955881;29;20223;-79
2023/12/12 11:22:05;;;;;;;7.25;5.93;;;9.90;99.90;;;;;;4955184;29;20235;-75
2023/12/12 11:25:03;;;;;;;6.60;5.15;;;9.90;99.90;;;;;;4949369;28;20231;-80
2023/12/12 11:27:32;;;;;;;6.35;4.05;;;9.90;99.90;;;;;;4937219;28;20224;-80
2023/12/12 11:30:00;;;;;;;7.38;5.35;;;9.90;99.90;;;;;;4953829;28;20228;-80
2023/12/12 11:32:28;;;;;;;7.00;6.30;;;9.90;99.90;;;;;;4954365;28;20729;-81
2023/12/12 11:34:54;;;;;;;6.50;5.35;;;10.00;99.90;;;;;;4954013;28;20236;-81
2023/12/12 11:37:33;;;;;;;5.88;4.70;;;9.90;99.90;;;;;;4954707;28;20216;-81
2023/12/12 11:40:00;;;;;;;6.35;4.05;;;10.00;99.90;;;;;;4948599;28;20593;-81
2023/12/12 11:42:29;;;;;;;6.10;5.20;;;10.00;99.90;;;;;;4942158;28;20236;-81
2023/12/12 11:44:58;;;;;;;4.88;4.40;;;10.00;99.90;;;;;;4952946;28;20236;-81
2023/12/12 11:47:28;;;;;;;6.30;4.60;;;10.10;99.90;;;;;;4946528;28;20813;-81
2023/12/12 11:50:41;;;;;;;10.63;5.85;;;10.10;99.90;;;;;;4953962;28;20224;-75
2023/12/12 11:53:08;;;;;;;6.18;4.70;;;10.10;99.90;;;;;;4895777;29;20242;-79
2023/12/12 11:55:42;;;;;;;6.60;4.85;;;10.10;99.90;;;;;;4944733;29;20262;-79
2023/12/12 11:58:09;;;;;;;5.78;5.03;;;10.20;99.90;;;;;;4953735;29;20718;-75
2023/12/12 12:00:37;;;;;;;6.55;4.18;;;10.20;99.90;;;;;;4957852;28;20216;-79
2023/12/12 12:03:08;;;;;;;5.47;4.10;;;10.30;99.90;;;;;;4957986;29;20232;-75
2023/12/12 12:05:35;;;;;;;7.50;5.10;;;10.30;99.90;;;;;;4958412;29;20228;-75
2023/12/12 12:08:02;;;;;;;6.50;4.10;;;10.30;99.90;;;;;;4954862;28;20228;-76
2023/12/12 12:10:30;;;;;;;6.75;5.35;;;10.30;99.90;;;;;;4958212;29;20223;-75
2023/12/12 12:12:58;;;;;;;6.47;4.10;;;10.40;99.90;;;;;;4950716;28;20315;-76
2023/12/12 12:15:26;;;;;;;6.10;4.25;;;10.40;99.90;;;;;;4954914;28;20290;-76
2023/12/12 12:17:53;;;;;;;7.07;4.35;;;10.40;99.90;;;;;;4956153;28;20604;-76
2023/12/12 12:20:21;;;;;;;4.38;3.45;;;10.40;99.90;;;;;;4953602;28;20232;-76
2023/12/12 12:22:49;;;;;;;5.35;4.60;;;10.50;99.90;;;;;;4950342;28;20303;-77
2023/12/12 12:25:22;;;;;;;7.10;4.30;;;10.50;99.90;;;;;;4938470;29;20224;-77
2023/12/12 12:27:52;;;;;;;6.00;5.47;;;10.50;99.90;;;;;;4938329;29;20222;-76
2023/12/12 12:30:20;;;;;;;4.47;3.88;;;10.50;99.90;;;;;;4956127;29;20234;-76
2023/12/12 12:33:01;;;;;;;4.80;4.35;;;10.60;99.90;;;;;;4919660;29;20679;-77
2023/12/12 12:35:29;;;;;;;7.75;5.40;;;10.60;99.90;;;;;;4935564;29;20673;-77
2023/12/12 12:37:57;;;;;;;8.60;6.97;;;10.60;99.90;;;;;;4938149;29;20235;-75
2023/12/12 12:40:37;;;;;;;10.75;6.10;;;10.60;99.90;;;;;;4932476;29;20229;-76
2023/12/12 12:43:14;;;;;;;5.80;4.88;;;10.60;99.90;;;;;;4926932;29;20540;-80
2023/12/12 12:45:41;;;;;;;4.80;4.40;;;10.60;99.90;;;;;;4935210;29;20232;-81
2023/12/12 12:48:08;;;;;;;4.65;4.15;;;10.60;99.90;;;;;;4924168;29;20255;-81
2023/12/12 12:50:37;;;;;;;7.43;4.88;;;10.60;99.90;;;;;;4937468;29;20236;-81
2023/12/12 12:53:04;;;;;;;8.05;5.80;;;10.60;99.90;;;;;;4930459;29;20668;-81
2023/12/12 12:55:32;;;;;;;6.25;4.60;;;10.60;99.90;;;;;;4924206;29;20312;-81
2023/12/12 12:57:59;;;;;;;5.38;4.90;;;10.60;99.90;;;;;;4918435;29;20281;-81
2023/12/12 13:00:27;;;;;;;4.70;4.30;;;10.60;99.90;;;;;;4936694;29;20244;-81